Terminal Aerodrome Forecast
Issued by NWS Grand Forks, ND

Home | Current Version | Previous Version | Text Only | Print | Product List | Glossary Off
Versions: 1 2 3 4 5 6 7 8 9 10 11 12 13 14 15 16 17 18

000
FTUS43 KFGF 271700
TAFGFK
TAF
KGFK 271720Z 2718/2818 17012KT P6SM SKC
     FM280400 03010KT P6SM BKN080
     FM281200 35012KT P6SM OVC020=

USA.gov is the U.S. government's official web portal to all federal, state and local government web resources and services.